Time;durP1;ratioP1;P1;durP2;ratioP2;P2;SDS_P1;SDS_P2;PMS_P1;PMS_P2;Temp;Humidity;BMP_temperature;BMP_pressure;BME280_temperature;BME280_humidity;BME280_pressure;Samples;Min_cycle;Max_cycle;Signal;HPM_P1;HPM_P2
2022/02/26 00:02:21;;;;;;;39.92;18.50;;;;;;;-2.33;65.69;93553.41;5047999;28;20049;-44
2022/02/26 00:04:47;;;;;;;40.33;21.83;;;;;;;-2.21;65.76;93564.44;5047767;28;20109;-43
2022/02/26 00:07:12;;;;;;;37.17;22.50;;;;;;;-2.20;65.54;93565.94;5047836;28;20025;-44
2022/02/26 00:09:38;;;;;;;35.55;19.63;;;;;;;-2.37;66.47;93565.63;5047608;28;20053;-42
2022/02/26 00:12:04;;;;;;;29.63;16.50;;;;;;;-2.67;67.08;93566.75;5047820;28;20041;-43
2022/02/26 00:14:29;;;;;;;45.45;22.55;;;;;;;-2.76;67.51;93561.41;5046270;28;20033;-43
2022/02/26 00:16:55;;;;;;;13.23;7.65;;;;;;;-2.71;67.06;93560.78;5047807;28;20032;-43
2022/02/26 00:19:20;;;;;;;18.90;8.75;;;;;;;-2.55;66.86;93553.00;5047648;28;20508;-43
2022/02/26 00:21:46;;;;;;;29.52;15.75;;;;;;;-2.59;66.75;93540.84;5047494;28;20455;-43
2022/02/26 00:24:11;;;;;;;23.38;13.20;;;;;;;-2.52;66.62;93541.25;5047319;28;20029;-44
2022/02/26 00:26:37;;;;;;;23.98;14.20;;;;;;;-2.54;66.91;93546.38;5046377;28;20064;-43
2022/02/26 00:29:02;;;;;;;39.13;18.50;;;;;;;-2.50;67.65;93535.38;5047230;28;20032;-42
2022/02/26 00:31:28;;;;;;;39.60;21.00;;;;;;;-2.24;67.26;93536.38;5047157;28;20033;-43
2022/02/26 00:33:53;;;;;;;47.63;26.45;;;;;;;-2.23;66.41;93532.44;5047248;28;20116;-43
2022/02/26 00:36:19;;;;;;;42.88;21.85;;;;;;;-2.45;66.41;93521.25;5047142;28;20050;-43
2022/02/26 00:38:44;;;;;;;34.03;15.20;;;;;;;-2.73;66.28;93485.56;5047184;28;20032;-44
2022/02/26 00:41:10;;;;;;;24.60;14.20;;;;;;;-2.38;66.26;93524.31;5046714;28;20036;-43
2022/02/26 00:43:35;;;;;;;25.90;14.57;;;;;;;-2.55;66.37;93527.91;5047483;28;20029;-43
2022/02/26 00:46:01;;;;;;;20.92;10.95;;;;;;;-2.58;66.22;93518.78;5047001;28;20036;-43
2022/02/26 00:51:11;;;;;;;25.75;11.35;;;;;;;-2.82;67.49;93528.13;5046920;28;20051;-43
2022/02/26 00:53:36;;;;;;;31.50;16.42;;;;;;;-3.14;68.50;93533.13;5047103;28;20478;-43
2022/02/26 00:56:02;;;;;;;25.05;13.32;;;;;;;-2.86;68.05;93539.13;5047284;28;20399;-43
2022/02/26 00:58:27;;;;;;;23.70;13.20;;;;;;;-2.98;68.89;93547.44;5047003;28;20029;-43
2022/02/26 01:00:53;;;;;;;22.17;10.13;;;;;;;-3.02;69.55;93546.84;5046912;28;20021;-43
2022/02/26 01:03:18;;;;;;;21.05;11.23;;;;;;;-3.19;69.62;93543.81;5045565;28;20041;-43
2022/02/26 01:05:43;;;;;;;14.65;9.02;;;;;;;-3.31;70.39;93542.81;5046227;28;20054;-43
2022/02/26 01:08:09;;;;;;;20.42;9.55;;;;;;;-3.35;70.46;93542.22;5047146;28;20033;-43
2022/02/26 01:10:35;;;;;;;15.15;8.68;;;;;;;-3.16;71.20;93538.22;5046792;28;20035;-43
2022/02/26 01:13:00;;;;;;;14.60;9.85;;;;;;;-2.91;69.88;93539.75;5046704;28;20479;-43
2022/02/26 01:15:26;;;;;;;13.35;8.15;;;;;;;-2.97;70.29;93532.72;5046801;28;20029;-43
2022/02/26 01:17:52;;;;;;;14.88;9.55;;;;;;;-3.08;69.68;93498.91;5073965;27;20023;-43
2022/02/26 01:20:17;;;;;;;21.70;11.40;;;;;;;-2.69;69.02;93542.91;5151760;27;20018;-42
2022/02/26 01:22:43;;;;;;;22.05;11.77;;;;;;;-2.74;68.14;93519.22;5151436;27;20408;-42
2022/02/26 01:25:08;;;;;;;40.97;20.60;;;;;;;-2.66;68.58;93538.50;5151382;27;20023;-43
2022/02/26 01:27:34;;;;;;;31.75;18.38;;;;;;;-2.63;67.98;93545.69;5151346;27;20051;-42
2022/02/26 01:29:59;;;;;;;27.90;16.30;;;;;;;-2.55;67.00;93550.28;5151567;27;20019;-43
2022/02/26 01:32:25;;;;;;;23.65;15.20;;;;;;;-2.50;67.04;93543.50;5151480;27;20026;-42
2022/02/26 01:34:50;;;;;;;21.85;12.88;;;;;;;-2.58;67.31;93540.41;5151616;27;20031;-43
2022/02/26 01:37:16;;;;;;;24.10;13.20;;;;;;;-2.32;66.93;93543.34;5151785;27;20026;-43
2022/02/26 01:39:41;;;;;;;24.30;13.10;;;;;;;-2.34;66.24;93545.78;5155357;27;20019;-42
2022/02/26 01:42:06;;;;;;;30.10;16.20;;;;;;;-2.31;66.93;93540.19;5050939;27;20067;-43
2022/02/26 01:44:36;;;;;;;31.30;17.08;;;;;;;-2.61;67.84;93541.34;5050049;28;20032;-43
2022/02/26 01:47:02;;;;;;;29.33;17.60;;;;;;;-2.84;68.87;93541.34;5050183;28;20033;-43
2022/02/26 01:49:28;;;;;;;21.70;11.98;;;;;;;-2.66;68.22;93541.22;5049747;28;20036;-43
2022/02/26 01:51:53;;;;;;;17.08;11.35;;;;;;;-2.59;67.49;93540.84;5050137;28;20024;-43
2022/02/26 01:54:19;;;;;;;19.30;10.95;;;;;;;-2.66;67.44;93533.09;5050121;28;20501;-43
2022/02/26 01:56:46;;;;;;;17.75;8.85;;;;;;;-2.93;68.21;93534.06;5049830;28;20028;-42
2022/02/26 01:59:11;;;;;;;14.90;9.38;;;;;;;-3.22;69.76;93539.31;5049574;28;20060;-44
2022/02/26 02:01:37;;;;;;;15.75;10.10;;;;;;;-3.07;69.39;93540.88;5049656;28;20071;-43
2022/02/26 02:04:03;;;;;;;13.10;7.85;;;;;;;-3.15;69.58;93534.34;5049900;28;20057;-43
2022/02/26 02:06:29;;;;;;;15.95;6.90;;;;;;;-3.07;69.42;93532.78;5049510;28;20548;-43
2022/02/26 02:08:54;;;;;;;13.60;6.43;;;;;;;-3.02;69.22;93542.22;5049780;28;20029;-43
2022/02/26 02:11:20;;;;;;;14.73;6.05;;;;;;;-2.86;68.77;93538.38;5049664;28;20478;-43
2022/02/26 02:13:45;;;;;;;10.40;6.00;;;;;;;-2.75;68.25;93547.41;5049481;28;20029;-43
2022/02/26 02:16:11;;;;;;;10.82;5.45;;;;;;;-3.05;68.77;93551.22;5049419;28;20116;-42
2022/02/26 02:18:37;;;;;;;10.35;6.78;;;;;;;-3.24;69.85;93541.72;5049643;28;20028;-43
2022/02/26 02:21:03;;;;;;;10.98;6.85;;;;;;;-3.25;70.39;93540.25;5048047;28;20100;-43
2022/02/26 02:23:28;;;;;;;14.88;7.13;;;;;;;-3.03;70.40;93553.47;5049523;28;20061;-43
2022/02/26 02:25:55;;;;;;;16.10;8.55;;;;;;;-3.02;69.62;93554.97;5049472;28;20056;-43
2022/02/26 02:28:23;;;;;;;13.32;7.63;;;;;;;-2.98;69.60;93553.59;5049092;28;20498;-44
2022/02/26 02:30:49;;;;;;;12.73;7.85;;;;;;;-2.90;69.90;93549.31;5049116;28;20124;-43
2022/02/26 02:33:14;;;;;;;12.98;7.82;;;;;;;-2.80;69.41;93545.38;5049078;28;20068;-44
2022/02/26 02:35:41;;;;;;;14.35;6.47;;;;;;;-2.86;68.90;93544.53;5049330;28;20028;-43
2022/02/26 02:38:16;;;;;;;13.13;7.85;;;;;;;-2.78;70.17;93551.06;5049317;28;20032;-44
2022/02/26 02:40:47;;;;;;;16.88;10.40;;;;;;;-2.63;69.09;93540.28;5048543;28;20029;-43
2022/02/26 02:43:13;;;;;;;25.10;13.13;;;;;;;-2.80;68.77;93521.06;5049202;28;20044;-43
2022/02/26 02:45:40;;;;;;;26.98;15.20;;;;;;;-2.58;68.15;93550.47;5049233;28;20028;-43
2022/02/26 02:48:05;;;;;;;27.98;15.55;;;;;;;-2.66;68.63;93550.06;5049123;28;20104;-43
2022/02/26 02:50:31;;;;;;;25.42;15.88;;;;;;;-2.60;68.78;93550.91;5048058;28;20559;-42
2022/02/26 02:52:58;;;;;;;65.65;28.80;;;;;;;-2.54;67.94;93545.63;5048899;28;20032;-43
2022/02/26 02:55:23;;;;;;;43.20;19.63;;;;;;;-2.80;69.39;93556.19;5048685;28;20036;-42
2022/02/26 02:57:50;;;;;;;34.58;14.85;;;;;;;-2.63;68.43;93568.06;5049091;28;20025;-43
2022/02/26 03:00:16;;;;;;;19.17;10.40;;;;;;;-2.78;68.31;93555.72;5048973;28;20459;-42
2022/02/26 03:02:42;;;;;;;12.05;7.75;;;;;;;-3.04;68.99;93568.19;5048950;27;20025;-43
2022/02/26 03:05:08;;;;;;;18.85;9.02;;;;;;;-3.24;70.21;93563.31;5048676;28;20422;-42
2022/02/26 03:07:34;;;;;;;15.75;7.30;;;;;;;-3.12;69.88;93570.47;5048515;28;20032;-43
2022/02/26 03:10:00;;;;;;;19.40;9.00;;;;;;;-3.09;70.09;93578.41;5048498;28;20036;-43
2022/02/26 03:12:25;;;;;;;13.20;6.57;;;;;;;-2.84;68.56;93573.78;5048736;28;20033;-42
2022/02/26 03:14:51;;;;;;;14.18;7.15;;;;;;;-2.80;68.47;93575.09;5048777;28;20414;-43
2022/02/26 03:17:16;;;;;;;18.13;8.32;;;;;;;-2.93;69.24;93571.88;5048386;28;20489;-42
2022/02/26 03:19:47;;;;;;;42.95;17.77;;;;;;;-2.96;70.10;93572.03;5048358;28;20099;-43
2022/02/26 03:22:12;;;;;;;16.85;8.85;;;;;;;-3.21;69.94;93549.69;5044997;28;20403;-43
2022/02/26 03:24:38;;;;;;;16.13;7.97;;;;;;;-3.12;69.80;93565.81;5037057;28;20033;-43
2022/02/26 03:27:03;;;;;;;11.93;7.03;;;;;;;-3.14;70.36;93570.91;5028284;28;20053;-44
2022/02/26 03:29:29;;;;;;;20.15;12.00;;;;;;;-3.26;70.80;93580.00;5028536;28;20056;-43
2022/02/26 03:31:55;;;;;;;77.88;33.47;;;;;;;-3.23;69.65;93554.03;5028620;28;20025;-44
2022/02/26 03:34:21;;;;;;;71.97;33.80;;;;;;;-3.17;69.87;93574.56;5027513;28;20475;-43
2022/02/26 03:36:51;;;;;;;64.35;28.35;;;;;;;-3.19;70.05;93584.31;5032758;28;20031;-43
2022/02/26 03:39:17;;;;;;;65.10;29.40;;;;;;;-3.05;69.61;93601.81;5048613;28;20379;-43
2022/02/26 03:41:42;;;;;;;63.45;29.67;;;;;;;-3.18;69.54;93588.50;5047986;27;20032;-44
2022/02/26 03:44:08;;;;;;;56.25;29.05;;;;;;;-3.21;70.12;93600.97;5048249;28;20033;-44
2022/02/26 03:46:34;;;;;;;56.47;27.60;;;;;;;-3.19;69.69;93595.88;5048050;28;20161;-43
2022/02/26 03:49:03;;;;;;;54.42;27.67;;;;;;;-3.37;69.77;93604.03;5048175;28;20029;-42
2022/02/26 03:51:28;;;;;;;35.45;17.10;;;;;;;-3.67;70.46;93604.28;5048316;28;20468;-43
2022/02/26 03:53:54;;;;;;;60.33;35.78;;;;;;;-3.96;71.84;93610.16;5047784;28;20029;-44
2022/02/26 03:56:19;;;;;;;68.03;35.40;;;;;;;-3.80;71.72;93619.88;5047844;28;20032;-43
2022/02/26 03:58:45;;;;;;;34.15;20.88;;;;;;;-3.74;71.30;93623.47;5048086;28;20032;-43
2022/02/26 04:01:10;;;;;;;54.45;28.58;;;;;;;-3.88;72.04;93617.50;5047246;28;20041;-43
2022/02/26 04:03:36;;;;;;;54.95;24.38;;;;;;;-3.80;71.81;93623.34;5047407;28;20421;-42
2022/02/26 04:06:01;;;;;;;39.38;20.27;;;;;;;-3.62;71.47;93615.22;5047707;28;20028;-43
2022/02/26 04:08:28;;;;;;;40.33;21.35;;;;;;;-3.58;70.98;93609.66;5047976;28;20026;-44
2022/02/26 04:10:54;;;;;;;41.45;20.42;;;;;;;-3.78;71.73;93609.38;5047634;28;20032;-44
2022/02/26 04:13:19;;;;;;;32.28;17.88;;;;;;;-3.66;71.73;93617.28;5047821;28;20033;-42
2022/02/26 04:15:45;;;;;;;40.45;22.52;;;;;;;-3.69;71.42;93617.47;5047574;28;20082;-43
2022/02/26 04:18:10;;;;;;;30.88;15.68;;;;;;;-3.44;70.78;93615.16;5088178;27;20027;-43
2022/02/26 04:20:35;;;;;;;24.25;13.40;;;;;;;-3.61;70.91;93624.03;5152530;27;20076;-43
2022/02/26 04:23:02;;;;;;;34.13;17.65;;;;;;;-3.66;70.85;93624.66;5152386;27;20717;-43
2022/02/26 04:25:27;;;;;;;58.00;27.98;;;;;;;-3.55;70.63;93622.25;5152335;27;20098;-44
2022/02/26 04:27:53;;;;;;;60.58;28.50;;;;;;;-3.42;70.73;93622.81;5151953;27;20572;-43
2022/02/26 04:30:18;;;;;;;53.92;26.10;;;;;;;-3.38;69.66;93628.78;5151955;27;20034;-43
2022/02/26 04:32:44;;;;;;;55.25;28.95;;;;;;;-3.50;70.48;93621.59;5140511;27;20026;-42
2022/02/26 04:35:10;;;;;;;59.38;28.85;;;;;;;-3.34;70.23;93623.97;5047501;28;20033;-43
2022/02/26 04:37:36;;;;;;;57.08;27.05;;;;;;;-3.45;69.92;93621.75;5047300;28;20060;-43
2022/02/26 04:40:01;;;;;;;52.75;25.98;;;;;;;-3.48;70.85;93619.19;5047164;27;20082;-43
2022/02/26 04:42:27;;;;;;;54.08;27.35;;;;;;;-3.36;70.47;93610.94;5047116;28;20055;-43
2022/02/26 04:44:52;;;;;;;42.08;22.73;;;;;;;-3.52;70.67;93618.63;5047189;28;20033;-43
2022/02/26 04:47:18;;;;;;;51.90;28.52;;;;;;;-3.68;71.40;93614.31;5046371;28;20033;-43
2022/02/26 04:49:43;;;;;;;34.60;19.75;;;;;;;-3.92;71.92;93613.47;5046685;28;20028;-42
2022/02/26 04:52:09;;;;;;;40.00;23.75;;;;;;;-3.76;72.05;93605.03;5047412;28;20021;-43
2022/02/26 04:54:34;;;;;;;39.60;22.92;;;;;;;-3.87;72.47;93613.59;5047317;28;20052;-43
2022/02/26 04:57:00;;;;;;;48.35;24.88;;;;;;;-3.88;72.25;93617.50;5047333;28;20414;-43
2022/02/26 04:59:25;;;;;;;45.35;24.23;;;;;;;-3.94;73.17;93613.16;5047254;28;20042;-44
2022/02/26 05:01:51;;;;;;;40.28;21.42;;;;;;;-3.92;72.84;93625.00;5046894;28;20505;-43
2022/02/26 05:04:16;;;;;;;38.05;19.60;;;;;;;-4.04;73.58;93615.13;5046976;28;20021;-43
2022/02/26 05:06:42;;;;;;;35.58;19.27;;;;;;;-4.10;73.24;93602.72;5047143;28;20025;-43
2022/02/26 05:09:07;;;;;;;41.72;22.63;;;;;;;-4.10;73.73;93645.84;5047141;28;20153;-43
2022/02/26 05:11:33;;;;;;;31.33;17.75;;;;;;;-3.91;72.86;93642.69;5046729;28;20712;-43
2022/02/26 05:13:59;;;;;;;22.55;14.18;;;;;;;-3.98;72.83;93645.69;5049267;28;20097;-43
2022/02/26 05:16:24;;;;;;;37.42;17.20;;;;;;;-4.14;74.20;93646.00;5050368;28;20490;-43
2022/02/26 05:18:49;;;;;;;51.22;23.20;;;;;;;-3.86;73.94;93650.19;5050539;28;20029;-43
2022/02/26 05:21:15;;;;;;;35.08;19.45;;;;;;;-3.85;73.96;93648.22;5050418;28;20025;-43
2022/02/26 05:23:42;;;;;;;39.42;17.33;;;;;;;-3.71;74.16;93644.91;5050273;28;20027;-43
2022/02/26 05:26:11;;;;;;;30.58;16.67;;;;;;;-3.55;74.15;93649.94;5050001;28;20108;-43
2022/02/26 05:28:37;;;;;;;29.02;15.27;;;;;;;-3.62;73.89;93650.28;5050556;28;20029;-44
2022/02/26 05:31:03;;;;;;;31.00;16.42;;;;;;;-3.49;73.87;93658.97;5049809;28;20074;-43
2022/02/26 05:33:29;;;;;;;29.55;15.65;;;;;;;-3.35;72.89;93661.00;5050251;28;20065;-42
2022/02/26 05:35:54;;;;;;;29.42;14.93;;;;;;;-3.07;72.16;93673.22;5049850;28;20049;-43
2022/02/26 05:38:20;;;;;;;29.83;15.88;;;;;;;-3.09;71.97;93672.91;5049952;28;20032;-43
2022/02/26 05:40:45;;;;;;;24.90;14.30;;;;;;;-3.18;72.57;93670.25;5045865;28;20013;-42
2022/02/26 05:43:11;;;;;;;17.55;10.10;;;;;;;-3.11;72.75;93680.72;5036642;28;20374;-43
2022/02/26 05:45:36;;;;;;;14.45;9.02;;;;;;;-3.04;71.58;93682.38;5039497;28;20024;-43
2022/02/26 05:48:02;;;;;;;18.83;10.13;;;;;;;-2.94;71.59;93697.31;5034394;28;20029;-44
2022/02/26 05:50:27;;;;;;;25.38;14.75;;;;;;;-2.77;70.57;93697.72;5029922;28;20030;-42
2022/02/26 05:52:53;;;;;;;22.27;14.35;;;;;;;-2.58;70.70;93694.47;5030146;28;20029;-43
2022/02/26 05:55:18;;;;;;;19.88;10.68;;;;;;;-2.54;70.39;93697.75;5030104;28;20025;-42
2022/02/26 05:57:44;;;;;;;21.15;12.98;;;;;;;-2.76;71.58;93691.09;5029833;28;20451;-42
2022/02/26 06:00:09;;;;;;;16.23;10.90;;;;;;;-2.64;71.43;93690.88;5028512;28;20056;-43
2022/02/26 06:02:35;;;;;;;15.98;11.23;;;;;;;-2.63;71.76;93697.03;5030020;28;20032;-43
2022/02/26 06:05:01;;;;;;;32.25;18.23;;;;;;;-2.43;70.39;93699.94;5029722;28;20036;-43
2022/02/26 06:07:26;;;;;;;27.52;13.23;;;;;;;-2.52;70.45;93700.75;5029526;28;20026;-43
2022/02/26 06:09:52;;;;;;;30.42;18.48;;;;;;;-2.43;71.11;93698.00;5029426;28;20018;-43
2022/02/26 06:12:17;;;;;;;33.50;19.15;;;;;;;-2.35;71.60;93696.44;5029809;28;20025;-43
2022/02/26 06:14:43;;;;;;;96.60;39.55;;;;;;;-2.14;71.28;93694.63;5029455;28;20453;-43
2022/02/26 06:17:08;;;;;;;91.47;42.15;;;;;;;-2.07;70.89;93699.72;5032407;28;20032;-43
2022/02/26 06:19:33;;;;;;;179.05;76.78;;;;;;;-2.05;70.13;93702.69;5051858;27;20478;-44
2022/02/26 06:21:59;;;;;;;187.70;77.03;;;;;;;-1.98;70.02;93701.59;5048050;28;20040;-43
2022/02/26 06:24:25;;;;;;;107.10;48.88;;;;;;;-2.17;70.80;93705.66;5048547;28;20410;-42
2022/02/26 06:26:51;;;;;;;54.75;30.10;;;;;;;-2.17;71.80;93708.34;5048840;28;20477;-43
2022/02/26 06:29:16;;;;;;;53.80;30.00;;;;;;;-1.89;72.66;93710.41;5049385;28;20017;-43
2022/02/26 06:31:42;;;;;;;82.57;46.22;;;;;;;-1.31;71.68;93704.34;5049506;28;20486;-43
2022/02/26 06:34:07;;;;;;;96.45;51.72;;;;;;;-0.34;68.87;93704.88;5049203;28;20093;-43
2022/02/26 06:36:33;;;;;;;112.72;61.45;;;;;;;0.70;64.10;93717.47;5049097;28;20443;-43
2022/02/26 06:39:00;;;;;;;101.80;48.55;;;;;;;1.56;61.91;93711.06;5049103;28;20039;-43
2022/02/26 06:41:25;;;;;;;108.78;49.53;;;;;;;2.69;58.73;93705.19;5048824;28;20074;-43
2022/02/26 06:43:50;;;;;;;119.15;58.40;;;;;;;4.22;55.16;93701.47;5049120;28;20029;-43
2022/02/26 06:46:16;;;;;;;131.18;70.18;;;;;;;5.19;51.52;93708.22;5048888;28;20025;-42
2022/02/26 06:48:41;;;;;;;118.10;63.40;;;;;;;6.56;48.35;93710.25;5049200;28;20025;-42
2022/02/26 06:51:07;;;;;;;112.57;65.03;;;;;;;7.86;45.57;93718.41;5048804;28;20387;-42
2022/02/26 06:53:32;;;;;;;123.90;71.25;;;;;;;8.52;43.35;93713.78;5048768;28;20074;-42
2022/02/26 06:55:58;;;;;;;99.45;54.72;;;;;;;8.80;42.61;93702.97;5040145;28;20059;-43
2022/02/26 06:58:23;;;;;;;82.35;48.45;;;;;;;9.95;41.19;93703.66;5041299;28;20021;-42
2022/02/26 07:00:49;;;;;;;50.65;29.85;;;;;;;10.78;39.85;93698.78;5046513;28;20029;-42
2022/02/26 07:03:14;;;;;;;64.63;36.38;;;;;;;10.79;39.23;93702.25;5046702;28;20104;-43
2022/02/26 07:05:40;;;;;;;49.78;31.25;;;;;;;10.74;39.80;93700.41;5047041;28;20033;-42
2022/02/26 07:08:05;;;;;;;24.08;15.90;;;;;;;11.32;38.08;93700.50;5045344;28;20040;-42
2022/02/26 07:10:31;;;;;;;33.70;24.83;;;;;;;11.82;38.25;93699.75;5046351;28;20032;-42
2022/02/26 07:12:56;;;;;;;54.97;39.10;;;;;;;10.85;39.03;93705.63;5046492;28;20028;-43
2022/02/26 07:15:22;;;;;;;45.90;28.50;;;;;;;9.50;41.15;93712.25;5046553;28;20036;-42
2022/02/26 07:17:47;;;;;;;33.88;21.02;;;;;;;8.18;43.50;93710.13;5070282;27;20021;-42
2022/02/26 07:20:13;;;;;;;25.65;16.65;;;;;;;7.47;45.69;93712.78;5151387;27;20056;-43
2022/02/26 07:22:38;;;;;;;24.60;17.38;;;;;;;8.27;45.75;93712.50;5088982;27;20040;-43
2022/02/26 07:25:04;;;;;;;25.35;16.33;;;;;;;9.45;44.97;93715.13;5046412;28;20040;-42
2022/02/26 07:27:30;;;;;;;29.83;17.75;;;;;;;9.77;43.15;93715.63;5038370;28;20051;-42
2022/02/26 07:29:55;;;;;;;23.60;17.88;;;;;;;11.93;39.19;93704.91;5043491;28;20021;-43
2022/02/26 07:32:21;;;;;;;27.33;19.38;;;;;;;13.51;34.77;93703.94;5045459;28;20029;-42
2022/02/26 07:34:46;;;;;;;22.42;15.95;;;;;;;15.15;32.22;93705.31;5045521;27;20025;-43
2022/02/26 07:37:12;;;;;;;23.65;15.85;;;;;;;16.12;29.72;93701.13;5045240;28;20032;-43
2022/02/26 07:39:37;;;;;;;17.05;12.52;;;;;;;16.82;28.41;93703.03;5046199;28;20029;-43
2022/02/26 07:42:03;;;;;;;21.60;13.05;;;;;;;17.75;27.82;93683.41;5044628;28;20033;-43
2022/02/26 07:44:28;;;;;;;18.80;11.63;;;;;;;17.70;26.01;93706.03;5044854;28;20036;-44
2022/02/26 07:46:54;;;;;;;18.35;10.85;;;;;;;17.67;27.64;93702.38;5044269;28;20020;-42
2022/02/26 07:49:20;;;;;;;12.65;9.80;;;;;;;18.41;25.32;93700.59;5044526;28;20029;-42
2022/02/26 07:51:45;;;;;;;13.38;9.30;;;;;;;17.59;25.07;93696.22;5044509;28;20060;-42
2022/02/26 07:54:11;;;;;;;11.93;9.20;;;;;;;17.13;26.47;93692.81;5044056;28;20021;-42
2022/02/26 07:56:38;;;;;;;13.52;9.80;;;;;;;16.83;26.33;93691.28;5045494;28;20049;-42
2022/02/26 07:59:03;;;;;;;18.20;10.20;;;;;;;16.11;27.53;93696.88;5046296;28;20680;-42
2022/02/26 08:01:29;;;;;;;21.75;11.60;;;;;;;16.72;27.32;93685.56;5046023;28;20025;-43
2022/02/26 08:03:54;;;;;;;17.52;11.00;;;;;;;16.61;27.36;93686.84;5045812;28;20487;-42
2022/02/26 08:06:20;;;;;;;16.42;11.75;;;;;;;17.20;26.95;93686.34;5044345;28;20449;-42
2022/02/26 08:08:46;;;;;;;18.42;13.77;;;;;;;17.13;26.29;93687.94;5045420;28;20032;-42
2022/02/26 08:11:12;;;;;;;23.02;13.93;;;;;;;16.98;27.74;93676.34;5045199;28;20570;-42
2022/02/26 08:13:37;;;;;;;13.93;9.60;;;;;;;17.22;25.69;93690.03;5045437;28;20079;-40
2022/02/26 08:16:03;;;;;;;18.92;11.20;;;;;;;17.81;25.90;93697.81;5045316;28;20161;-41
2022/02/26 08:18:28;;;;;;;10.75;7.20;;;;;;;19.06;24.10;93689.66;5045284;28;20047;-42
2022/02/26 08:20:57;;;;;;;8.88;7.65;;;;;;;20.42;22.01;93693.53;5045334;28;20093;-42
2022/02/26 08:23:22;;;;;;;8.02;6.80;;;;;;;21.50;20.61;93696.50;5045685;28;20029;-42
2022/02/26 08:25:48;;;;;;;7.95;6.15;;;;;;;21.25;21.02;93697.16;5045825;28;20508;-42
2022/02/26 08:28:13;;;;;;;12.55;5.90;;;;;;;22.05;19.90;93689.81;5045522;28;20055;-42
2022/02/26 08:30:38;;;;;;;8.15;6.65;;;;;;;22.63;19.52;93694.41;5045391;28;20501;-42
2022/02/26 08:33:04;;;;;;;8.80;6.53;;;;;;;23.26;18.97;93679.38;5044997;28;20049;-42
2022/02/26 08:35:30;;;;;;;13.55;7.63;;;;;;;22.95;19.16;93685.56;5044803;28;20082;-42
2022/02/26 08:37:55;;;;;;;11.73;8.20;;;;;;;22.30;19.70;93689.09;5032554;28;20025;-43
2022/02/26 08:40:21;;;;;;;9.40;6.85;;;;;;;23.06;19.89;93684.75;5029126;28;20021;-41
2022/02/26 08:42:46;;;;;;;9.57;6.78;;;;;;;22.53;19.21;93678.41;5043911;28;20033;-42
2022/02/26 08:45:12;;;;;;;11.18;8.52;;;;;;;23.45;18.85;93687.44;5045230;28;20024;-42
2022/02/26 08:47:38;;;;;;;31.83;8.25;;;;;;;23.53;19.24;93676.56;5038270;28;20031;-40
2022/02/26 08:50:06;;;;;;;8.77;7.20;;;;;;;24.05;18.42;93686.88;5029661;28;20030;-42
2022/02/26 08:52:32;;;;;;;18.00;12.43;;;;;;;23.80;17.84;93687.75;5025531;28;20025;-42
2022/02/26 08:54:57;;;;;;;13.98;11.02;;;;;;;23.80;18.12;93684.94;5025258;28;20021;-42
2022/02/26 08:57:23;;;;;;;14.75;11.35;;;;;;;23.89;17.74;93686.06;5024713;28;20025;-42
2022/02/26 08:59:49;;;;;;;8.85;6.47;;;;;;;24.26;18.35;93677.28;5024794;28;20120;-42
2022/02/26 09:02:14;;;;;;;15.52;10.70;;;;;;;24.71;17.16;93675.88;5023718;28;20021;-42
2022/02/26 09:04:40;;;;;;;20.08;11.10;;;;;;;24.03;17.67;93673.41;5039724;28;20112;-42
2022/02/26 09:07:05;;;;;;;19.23;11.43;;;;;;;23.85;18.78;93669.69;5041779;28;20021;-42
2022/02/26 09:09:31;;;;;;;12.23;9.48;;;;;;;24.22;18.04;93657.34;5043275;28;20064;-42
2022/02/26 09:11:57;;;;;;;14.57;12.45;;;;;;;24.16;18.22;93657.06;5043356;28;20025;-42
2022/02/26 09:14:23;;;;;;;17.40;14.32;;;;;;;24.04;18.26;93652.31;5043621;28;20630;-41
2022/02/26 09:16:48;;;;;;;20.20;10.38;;;;;;;24.67;18.51;93661.56;5044746;28;20032;-42
2022/02/26 09:19:13;;;;;;;13.15;9.38;;;;;;;24.23;17.78;93665.19;5044946;28;20035;-42
2022/02/26 09:21:39;;;;;;;27.02;16.67;;;;;;;24.17;18.35;93664.88;5044872;28;20044;-42
2022/02/26 09:24:05;;;;;;;14.05;10.35;;;;;;;24.16;18.61;93663.44;5044393;28;20025;-42
2022/02/26 09:26:30;;;;;;;14.93;11.05;;;;;;;24.68;17.65;93657.41;5044423;28;20056;-42
2022/02/26 09:28:56;;;;;;;24.85;10.32;;;;;;;24.39;18.21;93648.25;5044622;28;20053;-42
2022/02/26 09:31:21;;;;;;;10.02;7.97;;;;;;;23.28;18.78;93656.97;5044473;28;20546;-42
2022/02/26 09:33:47;;;;;;;12.75;8.88;;;;;;;23.40;19.19;93657.59;5044300;28;20498;-43
2022/02/26 09:36:12;;;;;;;12.90;9.68;;;;;;;23.10;19.20;93656.03;5043984;28;20029;-42
2022/02/26 09:38:39;;;;;;;9.07;7.47;;;;;;;22.82;19.54;93651.78;5043939;28;20021;-42
2022/02/26 09:41:05;;;;;;;12.70;8.70;;;;;;;23.03;19.52;93660.63;5044528;28;20421;-43
2022/02/26 09:43:32;;;;;;;10.80;8.32;;;;;;;23.48;19.41;93660.06;5044884;28;20028;-42
2022/02/26 09:45:58;;;;;;;13.35;9.77;;;;;;;23.61;19.33;93665.69;5044200;28;20029;-42
2022/02/26 09:48:24;;;;;;;13.25;9.55;;;;;;;24.36;18.96;93664.38;5044384;28;20052;-42
2022/02/26 09:50:50;;;;;;;10.60;9.38;;;;;;;24.04;18.43;93660.00;5044303;28;20406;-42
2022/02/26 09:53:19;;;;;;;10.20;8.50;;;;;;;23.91;17.93;93647.41;5043807;28;20173;-42
2022/02/26 09:55:45;;;;;;;12.52;8.68;;;;;;;23.39;19.39;93638.50;5044237;28;20025;-42
2022/02/26 09:58:15;;;;;;;12.13;8.75;;;;;;;23.93;18.44;93658.09;5044294;28;20025;-42
2022/02/26 10:00:41;;;;;;;8.57;7.68;;;;;;;23.47;18.61;93656.53;5047312;28;20016;-42
2022/02/26 10:03:07;;;;;;;9.40;8.15;;;;;;;23.80;18.99;93648.28;5047727;28;20108;-42
2022/02/26 10:05:33;;;;;;;11.68;8.88;;;;;;;24.22;19.53;93651.69;5046575;28;20108;-42
2022/02/26 10:07:59;;;;;;;17.88;13.07;;;;;;;24.44;18.43;93652.72;5044662;28;20502;-42
2022/02/26 10:10:27;;;;;;;11.30;7.95;;;;;;;24.17;18.07;93656.41;5043756;28;20025;-42
2022/02/26 10:12:54;;;;;;;10.50;8.07;;;;;;;24.51;18.27;93654.47;5047036;28;20845;-41
2022/02/26 10:15:24;;;;;;;14.38;9.88;;;;;;;24.81;17.88;93647.38;5047245;28;20029;-43
2022/02/26 10:18:00;;;;;;;10.45;8.00;;;;;;;24.46;18.01;93647.91;5065744;27;20515;-41
2022/02/26 10:20:26;;;;;;;8.43;7.25;;;;;;;24.53;17.65;93658.13;5078885;27;20451;-42
2022/02/26 10:22:52;;;;;;;9.65;7.53;;;;;;;24.13;18.08;93652.69;5043744;28;20043;-42
2022/02/26 10:25:24;;;;;;;14.32;10.43;;;;;;;23.64;18.57;93649.59;5045913;28;20529;-42
2022/02/26 10:27:52;;;;;;;15.38;10.63;;;;;;;23.31;18.70;93650.06;5046771;28;20045;-42
2022/02/26 10:30:30;;;;;;;12.82;10.07;;;;;;;23.23;20.29;93652.47;5045717;28;20017;-41
2022/02/26 10:33:14;;;;;;;22.80;15.40;;;;;;;23.61;19.80;93651.59;5047283;28;20050;-42
2022/02/26 10:35:54;;;;;;;16.55;12.43;;;;;;;23.40;19.24;93642.78;5027489;28;20025;-42
2022/02/26 10:38:24;;;;;;;15.43;12.80;;;;;;;23.22;20.51;93639.75;5025339;28;20761;-42
2022/02/26 10:40:50;;;;;;;14.45;10.35;;;;;;;23.32;19.62;93643.09;5051117;27;20027;-42
2022/02/26 10:43:40;;;;;;;17.60;12.45;;;;;;;23.74;18.89;93648.00;5045191;28;20518;-42
2022/02/26 10:46:27;;;;;;;11.32;9.90;;;;;;;22.72;20.46;93640.00;5044877;28;20204;-42
2022/02/26 10:49:01;;;;;;;15.32;9.30;;;;;;;22.46;19.66;93637.22;5045236;28;20529;-42
2022/02/26 10:51:32;;;;;;;14.50;9.73;;;;;;;21.78;20.68;93636.28;5045856;28;20079;-42
2022/02/26 10:53:59;;;;;;;15.10;9.10;;;;;;;22.08;20.79;93637.25;5046660;28;20025;-42
2022/02/26 10:56:37;;;;;;;13.32;9.63;;;;;;;21.26;21.16;93630.50;5046667;28;20570;-42
2022/02/26 10:59:04;;;;;;;11.90;8.55;;;;;;;21.10;22.45;93624.69;5046958;28;20051;-42
2022/02/26 11:01:31;;;;;;;11.10;9.13;;;;;;;21.54;22.63;93632.84;5047045;28;20037;-41
2022/02/26 11:03:58;;;;;;;11.70;8.82;;;;;;;21.17;23.42;93625.75;5046727;28;20025;-42
2022/02/26 11:06:25;;;;;;;12.43;8.30;;;;;;;21.33;21.15;93624.59;5044730;28;20036;-41
2022/02/26 11:08:51;;;;;;;10.35;8.45;;;;;;;21.42;21.70;93628.63;5046496;28;20471;-42
2022/02/26 11:11:18;;;;;;;13.30;7.60;;;;;;;21.09;21.24;93623.94;5045243;28;20028;-42
2022/02/26 11:13:44;;;;;;;15.30;7.97;;;;;;;21.36;20.83;93617.03;5028329;28;20029;-42
2022/02/26 11:16:12;;;;;;;11.43;7.75;;;;;;;20.57;21.52;93611.69;5027414;28;20032;-42
2022/02/26 11:18:42;;;;;;;9.75;8.43;;;;;;;20.29;22.26;93619.16;5100684;27;20019;-43